sensor_id;sensor_type;location;lat;lon;timestamp;pressure;altitude;pressure_sealevel;temperature;humidity
63954;BME280;50128;52.094;5.232;2022-08-30T00:02:32;102084.0;;;17.18;82.06
63954;BME280;50128;52.094;5.232;2022-08-30T00:05:45;102087.0;;;17.16;82.21
63954;BME280;50128;52.094;5.232;2022-08-30T00:07:22;102080.0;;;17.04;82.76
63954;BME280;50128;52.094;5.232;2022-08-30T00:08:58;102083.0;;;17.16;82.22
63954;BME280;50128;52.094;5.232;2022-08-30T00:12:12;102084.0;;;17.25;81.59
63954;BME280;50128;52.094;5.232;2022-08-30T00:13:50;102081.0;;;17.12;82.21
63954;BME280;50128;52.094;5.232;2022-08-30T00:15:28;102080.0;;;17.2;81.98
63954;BME280;50128;52.094;5.232;2022-08-30T00:17:04;102078.0;;;17.0;82.68
63954;BME280;50128;52.094;5.232;2022-08-30T00:20:23;102086.0;;;16.95;83.1
63954;BME280;50128;52.094;5.232;2022-08-30T00:22:03;102084.0;;;16.9;83.39
63954;BME280;50128;52.094;5.232;2022-08-30T00:23:40;102083.0;;;16.88;83.51
63954;BME280;50128;52.094;5.232;2022-08-30T00:26:55;102082.0;;;16.93;83.34
63954;BME280;50128;52.094;5.232;2022-08-30T00:28:33;102082.0;;;16.93;83.21
63954;BME280;50128;52.094;5.232;2022-08-30T00:30:12;102080.0;;;16.9;83.64
63954;BME280;50128;52.094;5.232;2022-08-30T00:31:49;102080.0;;;16.93;83.5
63954;BME280;50128;52.094;5.232;2022-08-30T00:35:02;102077.0;;;16.93;83.38
63954;BME280;50128;52.094;5.232;2022-08-30T00:36:42;102072.0;;;16.95;83.19
63954;BME280;50128;52.094;5.232;2022-08-30T00:38:18;102065.0;;;16.95;83.14
63954;BME280;50128;52.094;5.232;2022-08-30T00:41:29;102068.0;;;17.0;82.9
63954;BME280;50128;52.094;5.232;2022-08-30T00:43:08;102067.0;;;16.97;83.04
63954;BME280;50128;52.094;5.232;2022-08-30T00:44:50;102077.0;;;16.77;83.91
63954;BME280;50128;52.094;5.232;2022-08-30T00:46:27;102074.0;;;16.84;83.8
63954;BME280;50128;52.094;5.232;2022-08-30T00:49:44;102078.0;;;16.72;84.15
63954;BME280;50128;52.094;5.232;2022-08-30T00:51:24;102081.0;;;16.9;83.48
63954;BME280;50128;52.094;5.232;2022-08-30T00:53:04;102081.0;;;16.75;84.15
63954;BME280;50128;52.094;5.232;2022-08-30T00:54:45;102087.0;;;16.68;84.64
63954;BME280;50128;52.094;5.232;2022-08-30T00:58:04;102092.0;;;16.7;84.48
63954;BME280;50128;52.094;5.232;2022-08-30T00:59:42;102093.0;;;16.7;84.4
63954;BME280;50128;52.094;5.232;2022-08-30T01:01:21;102091.0;;;16.73;84.27
63954;BME280;50128;52.094;5.232;2022-08-30T01:04:34;102088.0;;;16.77;84.18
63954;BME280;50128;52.094;5.232;2022-08-30T01:06:14;102086.0;;;16.77;84.15
63954;BME280;50128;52.094;5.232;2022-08-30T01:07:52;102089.0;;;16.77;83.92
63954;BME280;50128;52.094;5.232;2022-08-30T01:09:28;102086.0;;;16.77;83.98
63954;BME280;50128;52.094;5.232;2022-08-30T01:12:43;102089.0;;;16.66;84.65
63954;BME280;50128;52.094;5.232;2022-08-30T01:14:21;102091.0;;;16.61;84.79
63954;BME280;50128;52.094;5.232;2022-08-30T01:15:59;102092.0;;;16.5;85.2
63954;BME280;50128;52.094;5.232;2022-08-30T01:19:20;102091.0;;;16.61;84.69
63954;BME280;50128;52.094;5.232;2022-08-30T01:21:10;102095.0;;;16.61;84.74
63954;BME280;50128;52.094;5.232;2022-08-30T01:23:01;102094.0;;;16.65;84.52
63954;BME280;50128;52.094;5.232;2022-08-30T01:24:49;102090.0;;;16.64;84.68
63954;BME280;50128;52.094;5.232;2022-08-30T01:26:28;102084.0;;;16.45;85.09
63954;BME280;50128;52.094;5.232;2022-08-30T01:29:45;102086.0;;;16.52;84.87
63954;BME280;50128;52.094;5.232;2022-08-30T01:31:22;102091.0;;;16.57;84.78
63954;BME280;50128;52.094;5.232;2022-08-30T01:33:00;102094.0;;;16.59;84.99
63954;BME280;50128;52.094;5.232;2022-08-30T01:34:37;102096.0;;;16.54;85.2
63954;BME280;50128;52.094;5.232;2022-08-30T01:39:26;102097.0;;;16.45;85.36
63954;BME280;50128;52.094;5.232;2022-08-30T01:41:08;102096.0;;;16.52;84.8
63954;BME280;50128;52.094;5.232;2022-08-30T01:44:21;102096.0;;;16.52;85.01
63954;BME280;50128;52.094;5.232;2022-08-30T01:46:01;102096.0;;;16.59;84.92
63954;BME280;50128;52.094;5.232;2022-08-30T01:47:38;102096.0;;;16.46;85.51
63954;BME280;50128;52.094;5.232;2022-08-30T01:49:17;102095.0;;;16.65;84.75
63954;BME280;50128;52.094;5.232;2022-08-30T01:52:30;102098.0;;;16.59;84.74
63954;BME280;50128;52.094;5.232;2022-08-30T01:54:08;102101.0;;;16.52;85.13
63954;BME280;50128;52.094;5.232;2022-08-30T01:55:45;102102.0;;;16.48;85.59
63954;BME280;50128;52.094;5.232;2022-08-30T01:58:59;102100.0;;;16.45;85.48
63954;BME280;50128;52.094;5.232;2022-08-30T02:00:37;102097.0;;;16.46;85.61
63954;BME280;50128;52.094;5.232;2022-08-30T02:02:16;102097.0;;;16.5;85.56
63954;BME280;50128;52.094;5.232;2022-08-30T02:03:55;102099.0;;;16.46;85.73
63954;BME280;50128;52.094;5.232;2022-08-30T02:07:09;102101.0;;;16.36;86.21
63954;BME280;50128;52.094;5.232;2022-08-30T02:08:46;102102.0;;;16.45;85.62
63954;BME280;50128;52.094;5.232;2022-08-30T02:10:23;102105.0;;;16.34;86.11
63954;BME280;50128;52.094;5.232;2022-08-30T02:13:38;102102.0;;;16.4;85.81
63954;BME280;50128;52.094;5.232;2022-08-30T02:15:15;102105.0;;;16.25;86.24
63954;BME280;50128;52.094;5.232;2022-08-30T02:16:52;102102.0;;;16.34;86.14
63954;BME280;50128;52.094;5.232;2022-08-30T02:18:28;102100.0;;;16.29;86.43
63954;BME280;50128;52.094;5.232;2022-08-30T02:21:42;102098.0;;;16.25;86.31
63954;BME280;50128;52.094;5.232;2022-08-30T02:23:18;102096.0;;;16.18;86.41
63954;BME280;50128;52.094;5.232;2022-08-30T02:24:54;102095.0;;;16.27;86.35
63954;BME280;50128;52.094;5.232;2022-08-30T02:28:08;102098.0;;;16.2;86.7
63954;BME280;50128;52.094;5.232;2022-08-30T02:29:45;102093.0;;;16.15;86.77
63954;BME280;50128;52.094;5.232;2022-08-30T02:31:21;102090.0;;;16.11;87.21
63954;BME280;50128;52.094;5.232;2022-08-30T02:34:34;102087.0;;;16.09;86.97
63954;BME280;50128;52.094;5.232;2022-08-30T02:36:11;102085.0;;;16.06;87.03
63954;BME280;50128;52.094;5.232;2022-08-30T02:37:48;102085.0;;;16.11;86.65
63954;BME280;50128;52.094;5.232;2022-08-30T02:39:24;102088.0;;;16.14;87.05
63954;BME280;50128;52.094;5.232;2022-08-30T02:42:36;102090.0;;;16.16;86.82
63954;BME280;50128;52.094;5.232;2022-08-30T02:44:13;102090.0;;;16.16;87.08
63954;BME280;50128;52.094;5.232;2022-08-30T02:45:50;102087.0;;;16.12;87.16
63954;BME280;50128;52.094;5.232;2022-08-30T02:49:03;102088.0;;;16.11;87.29
63954;BME280;50128;52.094;5.232;2022-08-30T02:50:41;102082.0;;;16.22;86.83
63954;BME280;50128;52.094;5.232;2022-08-30T02:52:20;102087.0;;;16.21;86.59
63954;BME280;50128;52.094;5.232;2022-08-30T02:55:33;102077.0;;;16.07;87.32
63954;BME280;50128;52.094;5.232;2022-08-30T02:57:11;102080.0;;;16.12;87.07
63954;BME280;50128;52.094;5.232;2022-08-30T02:58:47;102078.0;;;16.05;87.22
63954;BME280;50128;52.094;5.232;2022-08-30T03:00:23;102074.0;;;15.98;87.73
63954;BME280;50128;52.094;5.232;2022-08-30T03:03:35;102067.0;;;16.05;87.4
63954;BME280;50128;52.094;5.232;2022-08-30T03:05:13;102066.0;;;16.11;86.96
63954;BME280;50128;52.094;5.232;2022-08-30T03:06:51;102069.0;;;16.16;86.68
63954;BME280;50128;52.094;5.232;2022-08-30T03:10:04;102064.0;;;16.05;86.89
63954;BME280;50128;52.094;5.232;2022-08-30T03:11:41;102066.0;;;15.92;87.75
63954;BME280;50128;52.094;5.232;2022-08-30T03:13:18;102062.0;;;15.97;87.52
63954;BME280;50128;52.094;5.232;2022-08-30T03:14:55;102063.0;;;15.9;87.95
63954;BME280;50128;52.094;5.232;2022-08-30T03:18:09;102066.0;;;16.05;87.42
63954;BME280;50128;52.094;5.232;2022-08-30T03:19:46;102067.0;;;16.04;87.29
63954;BME280;50128;52.094;5.232;2022-08-30T03:21:22;102064.0;;;16.05;87.17
63954;BME280;50128;52.094;5.232;2022-08-30T03:24:35;102067.0;;;16.02;87.57
63954;BME280;50128;52.094;5.232;2022-08-30T03:26:14;102067.0;;;15.89;87.75
63954;BME280;50128;52.094;5.232;2022-08-30T03:27:50;102063.0;;;16.06;86.96
63954;BME280;50128;52.094;5.232;2022-08-30T03:31:05;102065.0;;;15.92;87.81
63954;BME280;50128;52.094;5.232;2022-08-30T03:32:42;102063.0;;;15.88;87.91
63954;BME280;50128;52.094;5.232;2022-08-30T03:34:17;102063.0;;;15.89;87.96
63954;BME280;50128;52.094;5.232;2022-08-30T03:35:54;102061.0;;;15.81;88.01
63954;BME280;50128;52.094;5.232;2022-08-30T03:39:09;102063.0;;;15.78;87.94
63954;BME280;50128;52.094;5.232;2022-08-30T03:40:45;102061.0;;;15.74;88.44
63954;BME280;50128;52.094;5.232;2022-08-30T03:42:21;102062.0;;;15.67;88.6
63954;BME280;50128;52.094;5.232;2022-08-30T03:45:38;102056.0;;;15.63;88.69
63954;BME280;50128;52.094;5.232;2022-08-30T03:47:15;102056.0;;;15.64;88.94
63954;BME280;50128;52.094;5.232;2022-08-30T03:48:51;102052.0;;;15.68;88.8
63954;BME280;50128;52.094;5.232;2022-08-30T03:50:30;102052.0;;;15.68;88.94
63954;BME280;50128;52.094;5.232;2022-08-30T03:53:43;102053.0;;;15.81;87.91
63954;BME280;50128;52.094;5.232;2022-08-30T03:55:19;102057.0;;;15.69;88.19
63954;BME280;50128;52.094;5.232;2022-08-30T03:56:56;102051.0;;;15.64;88.47
63954;BME280;50128;52.094;5.232;2022-08-30T04:00:12;102053.0;;;15.62;88.33
63954;BME280;50128;52.094;5.232;2022-08-30T04:01:50;102057.0;;;15.62;88.67
63954;BME280;50128;52.094;5.232;2022-08-30T04:03:26;102060.0;;;15.64;88.13
63954;BME280;50128;52.094;5.232;2022-08-30T04:06:40;102065.0;;;15.68;88.25
63954;BME280;50128;52.094;5.232;2022-08-30T04:08:17;102061.0;;;15.6;88.68
63954;BME280;50128;52.094;5.232;2022-08-30T04:09:53;102064.0;;;15.63;88.48
63954;BME280;50128;52.094;5.232;2022-08-30T04:11:29;102059.0;;;15.65;88.58
63954;BME280;50128;52.094;5.232;2022-08-30T04:14:41;102064.0;;;15.64;88.66
63954;BME280;50128;52.094;5.232;2022-08-30T04:16:18;102062.0;;;15.77;87.94
63954;BME280;50128;52.094;5.232;2022-08-30T04:17:55;102062.0;;;15.83;87.87
63954;BME280;50128;52.094;5.232;2022-08-30T04:21:07;102059.0;;;15.72;87.98
63954;BME280;50128;52.094;5.232;2022-08-30T04:22:44;102058.0;;;15.75;87.79
63954;BME280;50128;52.094;5.232;2022-08-30T04:24:20;102061.0;;;15.81;87.72
63954;BME280;50128;52.094;5.232;2022-08-30T04:27:34;102063.0;;;15.78;87.62
63954;BME280;50128;52.094;5.232;2022-08-30T04:29:11;102063.0;;;15.75;87.75
63954;BME280;50128;52.094;5.232;2022-08-30T04:30:48;102066.0;;;15.71;87.72
63954;BME280;50128;52.094;5.232;2022-08-30T04:32:24;102067.0;;;15.69;87.74
63954;BME280;50128;52.094;5.232;2022-08-30T04:35:40;102063.0;;;15.75;87.47
63954;BME280;50128;52.094;5.232;2022-08-30T04:37:17;102067.0;;;15.82;87.03
63954;BME280;50128;52.094;5.232;2022-08-30T04:38:53;102068.0;;;15.74;87.16
63954;BME280;50128;52.094;5.232;2022-08-30T04:42:06;102067.0;;;15.71;87.31
63954;BME280;50128;52.094;5.232;2022-08-30T04:43:42;102062.0;;;15.84;86.64
63954;BME280;50128;52.094;5.232;2022-08-30T04:45:20;102067.0;;;15.79;86.75
63954;BME280;50128;52.094;5.232;2022-08-30T04:46:57;102064.0;;;15.69;87.2
63954;BME280;50128;52.094;5.232;2022-08-30T04:50:16;102064.0;;;15.71;87.09
63954;BME280;50128;52.094;5.232;2022-08-30T04:51:53;102064.0;;;15.72;86.88
63954;BME280;50128;52.094;5.232;2022-08-30T04:53:30;102071.0;;;15.63;87.26
63954;BME280;50128;52.094;5.232;2022-08-30T04:56:46;102076.0;;;15.62;87.29
63954;BME280;50128;52.094;5.232;2022-08-30T04:58:22;102082.0;;;15.66;87.01
63954;BME280;50128;52.094;5.232;2022-08-30T04:59:59;102089.0;;;15.62;87.37
63954;BME280;50128;52.094;5.232;2022-08-30T05:01:36;102087.0;;;15.58;87.51
63954;BME280;50128;52.094;5.232;2022-08-30T05:05:56;102094.0;;;15.67;87.12
63954;BME280;50128;52.094;5.232;2022-08-30T05:07:35;102097.0;;;15.56;87.41
63954;BME280;50128;52.094;5.232;2022-08-30T05:09:12;102097.0;;;15.67;86.99
63954;BME280;50128;52.094;5.232;2022-08-30T05:10:50;102099.0;;;15.58;87.32
63954;BME280;50128;52.094;5.232;2022-08-30T05:12:28;102095.0;;;15.65;87.04
63954;BME280;50128;52.094;5.232;2022-08-30T05:15:41;102095.0;;;15.62;87.16
63954;BME280;50128;52.094;5.232;2022-08-30T05:17:20;102098.0;;;15.59;87.09
63954;BME280;50128;52.094;5.232;2022-08-30T05:18:57;102100.0;;;15.67;86.89
63954;BME280;50128;52.094;5.232;2022-08-30T05:20:34;102101.0;;;15.63;86.74
63954;BME280;50128;52.094;5.232;2022-08-30T05:23:48;102102.0;;;15.62;87.07
63954;BME280;50128;52.094;5.232;2022-08-30T05:25:26;102109.0;;;15.58;87.29
63954;BME280;50128;52.094;5.232;2022-08-30T05:27:04;102113.0;;;15.6;87.06
63954;BME280;50128;52.094;5.232;2022-08-30T05:30:19;102116.0;;;15.57;87.07
63954;BME280;50128;52.094;5.232;2022-08-30T05:31:55;102118.0;;;15.59;86.89
63954;BME280;50128;52.094;5.232;2022-08-30T05:33:32;102117.0;;;15.65;86.86
63954;BME280;50128;52.094;5.232;2022-08-30T05:35:10;102118.0;;;15.67;86.63
63954;BME280;50128;52.094;5.232;2022-08-30T05:38:24;102118.0;;;15.78;86.16
63954;BME280;50128;52.094;5.232;2022-08-30T05:40:00;102121.0;;;15.69;86.47
63954;BME280;50128;52.094;5.232;2022-08-30T05:41:37;102122.0;;;15.67;86.58
63954;BME280;50128;52.094;5.232;2022-08-30T05:44:52;102124.0;;;15.74;86.47
63954;BME280;50128;52.094;5.232;2022-08-30T05:46:32;102122.0;;;15.74;86.45
63954;BME280;50128;52.094;5.232;2022-08-30T05:48:09;102127.0;;;15.76;86.38
63954;BME280;50128;52.094;5.232;2022-08-30T05:49:45;102130.0;;;15.83;86.23
63954;BME280;50128;52.094;5.232;2022-08-30T05:53:01;102128.0;;;15.83;86.12
63954;BME280;50128;52.094;5.232;2022-08-30T05:54:37;102130.0;;;15.91;85.63
63954;BME280;50128;52.094;5.232;2022-08-30T05:56:16;102127.0;;;15.94;85.27
63954;BME280;50128;52.094;5.232;2022-08-30T05:59:29;102123.0;;;15.95;85.35
63954;BME280;50128;52.094;5.232;2022-08-30T06:01:05;102121.0;;;16.03;85.2
63954;BME280;50128;52.094;5.232;2022-08-30T06:02:43;102126.0;;;16.05;84.82
63954;BME280;50128;52.094;5.232;2022-08-30T06:07:31;102127.0;;;16.14;84.37
63954;BME280;50128;52.094;5.232;2022-08-30T06:09:10;102130.0;;;16.2;84.06
63954;BME280;50128;52.094;5.232;2022-08-30T06:10:48;102133.0;;;16.22;83.8
63954;BME280;50128;52.094;5.232;2022-08-30T06:14:02;102130.0;;;16.3;83.5
63954;BME280;50128;52.094;5.232;2022-08-30T06:15:40;102128.0;;;16.41;83.14
63954;BME280;50128;52.094;5.232;2022-08-30T06:17:17;102123.0;;;16.46;83.18
63954;BME280;50128;52.094;5.232;2022-08-30T06:20:31;102125.0;;;16.48;82.95
63954;BME280;50128;52.094;5.232;2022-08-30T06:22:08;102132.0;;;16.59;82.29
63954;BME280;50128;52.094;5.232;2022-08-30T06:23:44;102134.0;;;16.52;81.52
63954;BME280;50128;52.094;5.232;2022-08-30T06:25:21;102136.0;;;16.61;81.8
63954;BME280;50128;52.094;5.232;2022-08-30T06:28:33;102135.0;;;16.68;80.97
63954;BME280;50128;52.094;5.232;2022-08-30T06:30:10;102138.0;;;16.7;79.47
63954;BME280;50128;52.094;5.232;2022-08-30T06:31:48;102134.0;;;16.93;79.17
63954;BME280;50128;52.094;5.232;2022-08-30T06:35:01;102133.0;;;17.0;79.09
63954;BME280;50128;52.094;5.232;2022-08-30T06:36:38;102135.0;;;17.16;77.63
63954;BME280;50128;52.094;5.232;2022-08-30T06:38:15;102130.0;;;17.34;76.05
63954;BME280;50128;52.094;5.232;2022-08-30T06:41:29;102131.0;;;17.52;76.11
63954;BME280;50128;52.094;5.232;2022-08-30T06:43:07;102130.0;;;17.53;75.05
63954;BME280;50128;52.094;5.232;2022-08-30T06:44:44;102131.0;;;17.62;74.33
63954;BME280;50128;52.094;5.232;2022-08-30T06:46:24;102132.0;;;17.75;73.99
63954;BME280;50128;52.094;5.232;2022-08-30T06:49:37;102136.0;;;17.88;72.69
63954;BME280;50128;52.094;5.232;2022-08-30T06:51:17;102133.0;;;18.0;72.61
63954;BME280;50128;52.094;5.232;2022-08-30T06:52:54;102133.0;;;18.0;72.19
63954;BME280;50128;52.094;5.232;2022-08-30T06:56:08;102133.0;;;18.0;72.48
63954;BME280;50128;52.094;5.232;2022-08-30T06:57:46;102127.0;;;18.12;72.27
63954;BME280;50128;52.094;5.232;2022-08-30T06:59:23;102130.0;;;18.23;71.12
63954;BME280;50128;52.094;5.232;2022-08-30T07:00:59;102122.0;;;18.43;70.49
63954;BME280;50128;52.094;5.232;2022-08-30T07:04:13;102121.0;;;18.52;70.16
63954;BME280;50128;52.094;5.232;2022-08-30T07:05:49;102125.0;;;18.52;69.61
63954;BME280;50128;52.094;5.232;2022-08-30T07:07:25;102125.0;;;18.47;69.45
63954;BME280;50128;52.094;5.232;2022-08-30T07:10:38;102125.0;;;18.46;69.03
63954;BME280;50128;52.094;5.232;2022-08-30T07:12:16;102124.0;;;18.5;68.87
63954;BME280;50128;52.094;5.232;2022-08-30T07:13:52;102118.0;;;18.66;68.55
63954;BME280;50128;52.094;5.232;2022-08-30T07:15:28;102117.0;;;18.75;67.92
63954;BME280;50128;52.094;5.232;2022-08-30T07:20:26;102119.0;;;18.97;67.16
63954;BME280;50128;52.094;5.232;2022-08-30T07:22:02;102122.0;;;19.05;65.52
63954;BME280;50128;52.094;5.232;2022-08-30T07:25:17;102117.0;;;19.11;66.47
63954;BME280;50128;52.094;5.232;2022-08-30T07:26:53;102121.0;;;19.09;64.95
63954;BME280;50128;52.094;5.232;2022-08-30T07:28:30;102123.0;;;19.11;64.77
63954;BME280;50128;52.094;5.232;2022-08-30T07:31:44;102127.0;;;19.2;63.81
63954;BME280;50128;52.094;5.232;2022-08-30T07:33:21;102134.0;;;19.28;64.22
63954;BME280;50128;52.094;5.232;2022-08-30T07:34:58;102126.0;;;19.36;62.67
63954;BME280;50128;52.094;5.232;2022-08-30T07:36:36;102130.0;;;19.36;62.8
63954;BME280;50128;52.094;5.232;2022-08-30T07:39:50;102131.0;;;19.43;62.38
63954;BME280;50128;52.094;5.232;2022-08-30T07:41:29;102132.0;;;19.52;62.66
63954;BME280;50128;52.094;5.232;2022-08-30T07:43:06;102130.0;;;19.46;61.22
63954;BME280;50128;52.094;5.232;2022-08-30T07:46:19;102131.0;;;19.57;60.72
63954;BME280;50128;52.094;5.232;2022-08-30T07:47:57;102132.0;;;19.7;60.56
63954;BME280;50128;52.094;5.232;2022-08-30T07:49:33;102130.0;;;19.75;61.26
63954;BME280;50128;52.094;5.232;2022-08-30T07:51:11;102134.0;;;19.84;59.51
63954;BME280;50128;52.094;5.232;2022-08-30T07:54:25;102134.0;;;19.79;59.58
63954;BME280;50128;52.094;5.232;2022-08-30T07:56:02;102140.0;;;19.86;59.05
63954;BME280;50128;52.094;5.232;2022-08-30T08:00:51;102136.0;;;19.89;58.8
63954;BME280;50128;52.094;5.232;2022-08-30T08:02:27;102139.0;;;19.95;58.06
63954;BME280;50128;52.094;5.232;2022-08-30T08:04:03;102142.0;;;20.0;58.23
63954;BME280;50128;52.094;5.232;2022-08-30T08:07:18;102142.0;;;20.02;58.12
63954;BME280;50128;52.094;5.232;2022-08-30T08:08:56;102138.0;;;20.13;57.48
63954;BME280;50128;52.094;5.232;2022-08-30T08:10:34;102144.0;;;20.27;56.57
63954;BME280;50128;52.094;5.232;2022-08-30T08:12:11;102138.0;;;20.3;56.84
63954;BME280;50128;52.094;5.232;2022-08-30T08:15:25;102144.0;;;20.41;56.86
63954;BME280;50128;52.094;5.232;2022-08-30T08:17:04;102140.0;;;20.45;55.94
63954;BME280;50128;52.094;5.232;2022-08-30T08:18:40;102148.0;;;20.46;54.86
63954;BME280;50128;52.094;5.232;2022-08-30T08:21:55;102136.0;;;20.52;53.72
63954;BME280;50128;52.094;5.232;2022-08-30T08:23:32;102133.0;;;20.58;53.1
63954;BME280;50128;52.094;5.232;2022-08-30T08:25:09;102141.0;;;20.7;52.95
63954;BME280;50128;52.094;5.232;2022-08-30T08:26:45;102134.0;;;20.8;52.29
63954;BME280;50128;52.094;5.232;2022-08-30T08:29:58;102132.0;;;20.94;52.83
63954;BME280;50128;52.094;5.232;2022-08-30T08:31:36;102135.0;;;20.8;50.6
63954;BME280;50128;52.094;5.232;2022-08-30T08:33:12;102145.0;;;20.88;51.36
63954;BME280;50128;52.094;5.232;2022-08-30T08:36:25;102136.0;;;20.86;50.84
63954;BME280;50128;52.094;5.232;2022-08-30T08:38:01;102147.0;;;21.0;52.0
63954;BME280;50128;52.094;5.232;2022-08-30T08:39:38;102145.0;;;20.99;49.94
63954;BME280;50128;52.094;5.232;2022-08-30T08:41:25;102136.0;;;21.0;50.99
63954;BME280;50128;52.094;5.232;2022-08-30T08:44:54;102142.0;;;21.02;50.63
63954;BME280;50128;52.094;5.232;2022-08-30T08:46:36;102136.0;;;20.99;49.68
63954;BME280;50128;52.094;5.232;2022-08-30T08:48:27;102136.0;;;21.11;49.98
63954;BME280;50128;52.094;5.232;2022-08-30T08:50:10;102134.0;;;21.2;50.27
63954;BME280;50128;52.094;5.232;2022-08-30T08:54:43;102136.0;;;21.33;50.7
63954;BME280;50128;52.094;5.232;2022-08-30T08:56:22;102139.0;;;21.33;50.17
63954;BME280;50128;52.094;5.232;2022-08-30T08:58:00;102133.0;;;21.4;49.81
63954;BME280;50128;52.094;5.232;2022-08-30T09:01:17;102137.0;;;21.48;50.56
63954;BME280;50128;52.094;5.232;2022-08-30T09:02:56;102134.0;;;21.54;50.29
63954;BME280;50128;52.094;5.232;2022-08-30T09:04:36;102140.0;;;21.72;49.76
63954;BME280;50128;52.094;5.232;2022-08-30T09:08:12;102135.0;;;21.71;49.24
63954;BME280;50128;52.094;5.232;2022-08-30T09:09:51;102133.0;;;21.71;49.22
63954;BME280;50128;52.094;5.232;2022-08-30T09:11:30;102136.0;;;21.9;49.51
63954;BME280;50128;52.094;5.232;2022-08-30T09:13:09;102131.0;;;21.98;48.59
63954;BME280;50128;52.094;5.232;2022-08-30T09:14:51;102130.0;;;22.19;47.89
63954;BME280;50128;52.094;5.232;2022-08-30T09:18:41;102125.0;;;22.15;47.69
63954;BME280;50128;52.094;5.232;2022-08-30T09:20:29;102127.0;;;22.06;45.79
63954;BME280;50128;52.094;5.232;2022-08-30T09:22:14;102126.0;;;22.12;47.18
63954;BME280;50128;52.094;5.232;2022-08-30T09:23:56;102124.0;;;22.21;47.04
63954;BME280;50128;52.094;5.232;2022-08-30T09:25:33;102126.0;;;22.2;45.56
63954;BME280;50128;52.094;5.232;2022-08-30T09:29:15;102127.0;;;22.23;44.7
63954;BME280;50128;52.094;5.232;2022-08-30T09:31:00;102130.0;;;22.27;45.42
63954;BME280;50128;52.094;5.232;2022-08-30T09:32:39;102127.0;;;22.25;44.23
63954;BME280;50128;52.094;5.232;2022-08-30T09:34:17;102131.0;;;22.4;45.98
63954;BME280;50128;52.094;5.232;2022-08-30T09:36:09;102127.0;;;22.34;45.71
63954;BME280;50128;52.094;5.232;2022-08-30T09:37:52;102133.0;;;22.36;44.52
63954;BME280;50128;52.094;5.232;2022-08-30T09:41:28;102130.0;;;22.42;44.88
63954;BME280;50128;52.094;5.232;2022-08-30T09:43:20;102130.0;;;22.34;44.35
63954;BME280;50128;52.094;5.232;2022-08-30T09:45:18;102133.0;;;22.27;43.16
63954;BME280;50128;52.094;5.232;2022-08-30T09:47:03;102135.0;;;22.22;43.85
63954;BME280;50128;52.094;5.232;2022-08-30T09:48:44;102138.0;;;22.45;44.67
63954;BME280;50128;52.094;5.232;2022-08-30T09:50:22;102139.0;;;22.34;45.05
63954;BME280;50128;52.094;5.232;2022-08-30T09:53:59;102137.0;;;22.43;44.12
63954;BME280;50128;52.094;5.232;2022-08-30T09:55:53;102134.0;;;22.45;44.55
63954;BME280;50128;52.094;5.232;2022-08-30T09:57:48;102138.0;;;22.47;45.77
63954;BME280;50128;52.094;5.232;2022-08-30T09:59:40;102132.0;;;22.56;44.83
63954;BME280;50128;52.094;5.232;2022-08-30T10:01:21;102128.0;;;22.71;45.32
63954;BME280;50128;52.094;5.232;2022-08-30T10:03:10;102132.0;;;22.67;45.51
63954;BME280;50128;52.094;5.232;2022-08-30T10:06:40;102132.0;;;22.89;46.85
63954;BME280;50128;52.094;5.232;2022-08-30T10:08:25;102128.0;;;22.99;45.98
63954;BME280;50128;52.094;5.232;2022-08-30T10:10:15;102127.0;;;23.04;45.15
63954;BME280;50128;52.094;5.232;2022-08-30T10:12:02;102124.0;;;23.09;45.11
63954;BME280;50128;52.094;5.232;2022-08-30T10:13:56;102124.0;;;23.07;44.76
63954;BME280;50128;52.094;5.232;2022-08-30T10:15:39;102122.0;;;23.2;45.41
63954;BME280;50128;52.094;5.232;2022-08-30T10:19:22;102124.0;;;23.2;44.19
63954;BME280;50128;52.094;5.232;2022-08-30T10:21:10;102130.0;;;23.27;44.13
63954;BME280;50128;52.094;5.232;2022-08-30T10:22:52;102127.0;;;23.46;44.56
63954;BME280;50128;52.094;5.232;2022-08-30T10:24:34;102127.0;;;23.5;43.77
63954;BME280;50128;52.094;5.232;2022-08-30T10:26:20;102134.0;;;23.42;42.44
63954;BME280;50128;52.094;5.232;2022-08-30T10:28:06;102130.0;;;23.25;40.61
63954;BME280;50128;52.094;5.232;2022-08-30T10:31:32;102125.0;;;23.38;40.31
63954;BME280;50128;52.094;5.232;2022-08-30T10:33:16;102121.0;;;23.35;41.24
63954;BME280;50128;52.094;5.232;2022-08-30T10:35:00;102132.0;;;23.29;42.2
63954;BME280;50128;52.094;5.232;2022-08-30T10:36:43;102132.0;;;23.26;41.84
63954;BME280;50128;52.094;5.232;2022-08-30T10:41:21;102133.0;;;23.26;41.54
63954;BME280;50128;52.094;5.232;2022-08-30T10:43:01;102121.0;;;23.12;40.5
63954;BME280;50128;52.094;5.232;2022-08-30T10:44:46;102123.0;;;23.18;41.09
63954;BME280;50128;52.094;5.232;2022-08-30T10:48:15;102128.0;;;23.24;40.08
63954;BME280;50128;52.094;5.232;2022-08-30T10:50:03;102131.0;;;23.17;40.04
63954;BME280;50128;52.094;5.232;2022-08-30T10:51:45;102132.0;;;23.12;40.67
63954;BME280;50128;52.094;5.232;2022-08-30T10:53:38;102130.0;;;23.09;40.9
63954;BME280;50128;52.094;5.232;2022-08-30T10:55:20;102132.0;;;23.15;41.6
63954;BME280;50128;52.094;5.232;2022-08-30T10:58:37;102127.0;;;23.15;41.29
63954;BME280;50128;52.094;5.232;2022-08-30T11:00:22;102119.0;;;23.27;40.93
63954;BME280;50128;52.094;5.232;2022-08-30T11:02:15;102126.0;;;23.33;40.82
63954;BME280;50128;52.094;5.232;2022-08-30T11:05:05;102123.0;;;23.33;40.71
63954;BME280;50128;52.094;5.232;2022-08-30T11:07:26;102122.0;;;23.47;41.22
63954;BME280;50128;52.094;5.232;2022-08-30T11:09:18;102116.0;;;23.46;40.83
63954;BME280;50128;52.094;5.232;2022-08-30T11:11:14;102120.0;;;23.38;40.78
63954;BME280;50128;52.094;5.232;2022-08-30T11:13:00;102118.0;;;23.42;40.76
63954;BME280;50128;52.094;5.232;2022-08-30T11:14:39;102113.0;;;23.45;40.9
63954;BME280;50128;52.094;5.232;2022-08-30T11:16:19;102117.0;;;23.48;39.89
63954;BME280;50128;52.094;5.232;2022-08-30T11:18:12;102120.0;;;23.49;40.89
63954;BME280;50128;52.094;5.232;2022-08-30T11:21:32;102114.0;;;23.52;40.75